createdAt,value
2022-07-27T00:00:17.158Z,72.6
2022-07-27T00:01:16.840Z,72.6
2022-07-27T00:02:16.648Z,72.7
2022-07-27T00:03:17.115Z,72.7
2022-07-27T00:04:17.082Z,72.8
2022-07-27T00:05:17.329Z,73.1
2022-07-27T00:06:16.793Z,73.1
2022-07-27T00:07:17.284Z,73.2
2022-07-27T00:08:16.724Z,73.2
2022-07-27T00:09:17.147Z,73.2
2022-07-27T00:10:16.598Z,73.4
2022-07-27T00:11:17.026Z,73.5
2022-07-27T00:12:16.600Z,73.5
2022-07-27T00:13:17.022Z,73.5
2022-07-27T00:14:16.435Z,73.6
2022-07-27T00:15:16.913Z,73.6
2022-07-27T00:16:17.566Z,73.7
2022-07-27T00:17:17.106Z,73.6
2022-07-27T00:18:16.568Z,73.7
2022-07-27T00:19:17.027Z,73.7
2022-07-27T00:20:16.478Z,73.8
2022-07-27T00:21:16.932Z,74.0
2022-07-27T00:22:16.796Z,73.9
2022-07-27T00:23:17.225Z,74.3
2022-07-27T00:24:16.644Z,74.4
2022-07-27T00:25:17.089Z,74.3
2022-07-27T00:26:16.551Z,74.3
2022-07-27T00:27:16.983Z,74.5
2022-07-27T00:28:16.401Z,74.6
2022-07-27T00:29:16.844Z,74.7
2022-07-27T00:30:17.312Z,74.6
2022-07-27T00:31:16.915Z,74.6
2022-07-27T00:32:16.518Z,74.7
2022-07-27T00:33:17.774Z,74.8
2022-07-27T00:34:17.298Z,74.9
2022-07-27T00:35:16.751Z,75.0
2022-07-27T00:36:17.211Z,74.9
2022-07-27T00:37:16.667Z,75.1
2022-07-27T00:38:17.087Z,75.0
2022-07-27T00:39:16.529Z,75.1
2022-07-27T00:40:17.983Z,75.2
2022-07-27T00:41:16.437Z,75.2
2022-07-27T00:42:16.713Z,75.2
2022-07-27T00:43:17.151Z,75.2
2022-07-27T00:44:16.581Z,75.4
2022-07-27T00:45:17.077Z,75.3
2022-07-27T00:46:16.625Z,75.3
2022-07-27T00:47:17.094Z,75.0
2022-07-27T00:48:16.563Z,75.4
2022-07-27T00:49:17.585Z,75.6
2022-07-27T00:50:17.080Z,75.7
2022-07-27T00:51:16.545Z,75.7
2022-07-27T00:52:17.227Z,75.7
2022-07-27T00:53:16.698Z,75.9
2022-07-27T00:54:17.120Z,75.9
2022-07-27T00:55:16.589Z,75.8
2022-07-27T00:56:17.024Z,75.6
2022-07-27T00:57:16.452Z,75.6
2022-07-27T00:58:16.869Z,75.4
2022-07-27T00:59:17.334Z,75.3
2022-07-27T01:00:16.829Z,75.3
2022-07-27T01:01:17.505Z,75.1
2022-07-27T01:02:20.062Z,75.2
2022-07-27T01:03:17.522Z,75.1
2022-07-27T01:04:17.452Z,75.2
2022-07-27T01:05:18.212Z,75.2
2022-07-27T01:06:27.386Z,75.3
2022-07-27T01:07:16.887Z,75.4
2022-07-27T01:08:17.345Z,75.5
2022-07-27T01:09:16.766Z,75.4
2022-07-27T01:10:17.257Z,75.4
2022-07-27T01:11:16.704Z,75.5
2022-07-27T01:12:16.513Z,75.5
2022-07-27T01:13:16.987Z,75.6
2022-07-27T01:14:16.455Z,75.7
2022-07-27T01:15:16.903Z,75.8
2022-07-27T01:16:17.434Z,75.8
2022-07-27T01:17:16.924Z,75.8
2022-07-27T01:18:17.368Z,75.7
2022-07-27T01:19:16.923Z,75.7
2022-07-27T01:20:17.465Z,75.8
2022-07-27T01:21:16.909Z,75.8
2022-07-27T01:22:16.573Z,75.8
2022-07-27T01:23:17.008Z,76.0
2022-07-27T01:24:16.461Z,75.9
2022-07-27T01:25:17.162Z,76.3
2022-07-27T01:26:16.575Z,76.5
2022-07-27T01:27:16.993Z,76.9
2022-07-27T01:28:16.407Z,77.1
2022-07-27T01:29:16.887Z,77.1
2022-07-27T01:30:17.398Z,77.3
2022-07-27T01:31:17.016Z,77.0
2022-07-27T01:32:16.669Z,77.0
2022-07-27T01:33:17.120Z,77.3
2022-07-27T01:34:16.587Z,77.2
2022-07-27T01:35:17.067Z,77.3
2022-07-27T01:36:16.511Z,77.1
2022-07-27T01:37:16.949Z,77.1
2022-07-27T01:38:17.371Z,76.5
2022-07-27T01:39:16.821Z,76.6
2022-07-27T01:40:17.272Z,76.8
2022-07-27T01:41:16.731Z,77.3
2022-07-27T01:42:17.232Z,77.4
2022-07-27T01:43:16.715Z,77.6
2022-07-27T01:44:17.193Z,77.9
2022-07-27T01:45:16.675Z,77.9
2022-07-27T01:46:17.273Z,77.9
2022-07-27T01:47:16.775Z,78.0
2022-07-27T01:48:17.255Z,78.0
2022-07-27T01:49:17.538Z,78.1
2022-07-27T01:50:17.185Z,78.1
2022-07-27T01:51:16.600Z,77.9
2022-07-27T01:52:17.176Z,77.7
2022-07-27T01:53:16.617Z,77.7
2022-07-27T01:54:17.075Z,77.9
2022-07-27T01:55:16.492Z,78.0
2022-07-27T01:56:16.963Z,78.3
2022-07-27T01:57:17.381Z,78.5
2022-07-27T01:58:16.827Z,78.6
2022-07-27T01:59:17.573Z,78.5
2022-07-27T02:00:17.066Z,78.6
2022-07-27T02:01:16.601Z,78.7
2022-07-27T02:02:17.092Z,78.8
2022-07-27T02:03:16.538Z,78.9
2022-07-27T02:04:17.011Z,78.8
2022-07-27T02:05:16.632Z,78.8
2022-07-27T02:06:17.089Z,78.7
2022-07-27T02:07:16.507Z,78.9
2022-07-27T02:08:16.921Z,79.0
2022-07-27T02:09:17.376Z,79.1
2022-07-27T02:10:16.822Z,79.1
2022-07-27T02:11:17.288Z,79.1
2022-07-27T02:12:16.747Z,79.1
2022-07-27T02:13:23.313Z,79.4
2022-07-27T02:14:16.810Z,79.3
2022-07-27T02:15:19.071Z,79.4
2022-07-27T02:16:17.610Z,79.5
2022-07-27T02:17:18.960Z,79.7
2022-07-27T02:18:33.799Z,79.8
2022-07-27T02:19:18.586Z,80.0
2022-07-27T02:20:17.016Z,80.2
2022-07-27T02:21:16.451Z,80.1
2022-07-27T02:22:17.135Z,80.2
2022-07-27T02:23:16.573Z,80.2
2022-07-27T02:24:17.046Z,80.1
2022-07-27T02:25:16.467Z,80.2
2022-07-27T02:26:16.926Z,80.3
2022-07-27T02:27:17.393Z,80.3
2022-07-27T02:28:16.862Z,80.3
2022-07-27T02:29:17.327Z,80.4
2022-07-27T02:30:18.118Z,80.4
2022-07-27T02:31:16.562Z,80.5
2022-07-27T02:32:16.603Z,80.4
2022-07-27T02:33:17.295Z,80.4
2022-07-27T02:34:16.797Z,80.5
2022-07-27T02:35:20.393Z,80.5
2022-07-27T02:36:16.913Z,80.5
2022-07-27T02:37:17.385Z,80.6
2022-07-27T02:38:16.809Z,80.3
2022-07-27T02:39:17.245Z,80.3
2022-07-27T02:40:16.678Z,80.4
2022-07-27T02:41:17.092Z,80.4
2022-07-27T02:42:16.678Z,80.4
2022-07-27T02:43:17.125Z,80.4
2022-07-27T02:44:16.582Z,80.4
2022-07-27T02:45:17.050Z,80.4
2022-07-27T02:46:16.642Z,80.5
2022-07-27T02:47:17.170Z,80.4
2022-07-27T02:48:16.636Z,80.6
2022-07-27T02:49:19.228Z,80.5
2022-07-27T02:50:16.711Z,80.4
2022-07-27T02:51:17.138Z,80.3
2022-07-27T02:52:16.903Z,80.5
2022-07-27T02:53:17.328Z,80.4
2022-07-27T02:54:16.762Z,80.4
2022-07-27T02:55:17.182Z,80.4
2022-07-27T02:56:19.029Z,80.4
2022-07-27T02:57:16.510Z,80.4
2022-07-27T02:58:16.980Z,80.3
2022-07-27T02:59:16.433Z,80.4
2022-07-27T03:00:16.887Z,80.5
2022-07-27T03:01:17.394Z,80.4
2022-07-27T03:02:16.833Z,80.4
2022-07-27T03:03:17.270Z,80.4
2022-07-27T03:04:16.739Z,80.4
2022-07-27T03:05:17.334Z,80.3
2022-07-27T03:06:16.750Z,80.3
2022-07-27T03:07:17.191Z,80.1
2022-07-27T03:08:16.631Z,80.0
2022-07-27T03:09:17.087Z,80.0
2022-07-27T03:10:16.510Z,80.0
2022-07-27T03:11:16.976Z,80.1
2022-07-27T03:12:17.409Z,80.1
2022-07-27T03:13:16.844Z,80.2
2022-07-27T03:14:17.313Z,80.0
2022-07-27T03:15:16.780Z,80.1
2022-07-27T03:16:17.422Z,80.1
2022-07-27T03:17:16.900Z,80.5
2022-07-27T03:18:17.403Z,80.5
2022-07-27T03:19:16.822Z,80.6
2022-07-27T03:20:17.283Z,80.6
2022-07-27T03:21:16.734Z,80.7
2022-07-27T03:22:16.972Z,80.7
2022-07-27T03:23:17.388Z,80.8
2022-07-27T03:24:16.815Z,81.0
2022-07-27T03:25:17.254Z,80.8
2022-07-27T03:26:16.714Z,80.7
2022-07-27T03:27:17.209Z,80.7
2022-07-27T03:28:16.677Z,81.0
2022-07-27T03:29:17.130Z,81.1
2022-07-27T03:30:16.585Z,81.2
2022-07-27T03:31:17.262Z,81.5
2022-07-27T03:32:16.700Z,81.6
2022-07-27T03:33:17.210Z,81.8
2022-07-27T03:34:16.652Z,81.9
2022-07-27T03:35:19.975Z,81.7
2022-07-27T03:36:17.036Z,81.6
2022-07-27T03:37:16.476Z,81.4
2022-07-27T03:38:17.612Z,81.4
2022-07-27T03:39:17.035Z,81.3
2022-07-27T03:40:16.471Z,81.3
2022-07-27T03:41:16.927Z,81.3
2022-07-27T03:42:16.847Z,81.1
2022-07-27T03:43:17.315Z,81.0
2022-07-27T03:44:16.794Z,80.8
2022-07-27T03:45:17.275Z,80.9
2022-07-27T03:46:16.924Z,81.0
2022-07-27T03:47:17.430Z,81.0
2022-07-27T03:48:16.903Z,81.0
2022-07-27T03:49:17.820Z,81.1
2022-07-27T03:50:16.429Z,81.1
2022-07-27T03:51:16.884Z,81.1
2022-07-27T03:52:18.198Z,81.1
2022-07-27T03:53:16.610Z,81.0
2022-07-27T03:54:17.061Z,81.0
2022-07-27T03:55:16.515Z,81.0
2022-07-27T03:56:16.962Z,81.0
2022-07-27T03:57:17.421Z,80.9
2022-07-27T03:58:16.906Z,80.8
2022-07-27T03:59:17.390Z,80.7
2022-07-27T04:00:16.886Z,80.5
2022-07-27T04:01:17.579Z,80.5
2022-07-27T04:02:17.159Z,80.5
2022-07-27T04:03:16.629Z,80.3
2022-07-27T04:04:17.075Z,80.3
2022-07-27T04:05:16.496Z,80.3
2022-07-27T04:06:16.929Z,80.2
2022-07-27T04:07:17.381Z,80.2
2022-07-27T04:08:16.825Z,80.0
2022-07-27T04:09:20.548Z,79.6
2022-07-27T04:10:16.651Z,79.3
2022-07-27T04:11:19.025Z,79.1
2022-07-27T04:12:20.204Z,79.1
2022-07-27T04:13:17.974Z,79.2
2022-07-27T04:14:16.417Z,79.1
2022-07-27T04:15:16.871Z,79.1
2022-07-27T04:16:17.432Z,79.2
2022-07-27T04:17:53.739Z,79.3
2022-07-27T04:18:17.346Z,79.2
2022-07-27T04:19:16.971Z,79.0
2022-07-27T04:20:16.393Z,79.0
2022-07-27T04:21:16.844Z,79.0
2022-07-27T04:22:17.322Z,79.1
2022-07-27T04:23:16.751Z,79.2
2022-07-27T04:24:17.184Z,79.3
2022-07-27T04:25:16.635Z,79.3
2022-07-27T04:26:17.087Z,79.4
2022-07-27T04:27:17.017Z,79.5
2022-07-27T04:28:16.513Z,79.5
2022-07-27T04:29:21.349Z,79.4
2022-07-27T04:30:17.065Z,79.4
2022-07-27T04:31:16.798Z,79.4
2022-07-27T04:32:16.726Z,79.3
2022-07-27T04:33:17.193Z,79.2
2022-07-27T04:34:16.613Z,79.4
2022-07-27T04:35:18.621Z,79.4
2022-07-27T04:36:16.792Z,79.2
2022-07-27T04:37:17.255Z,79.0
2022-07-27T04:38:16.681Z,79.1
2022-07-27T04:39:17.111Z,79.2
2022-07-27T04:40:16.597Z,79.2
2022-07-27T04:41:17.100Z,79.2
2022-07-27T04:42:16.646Z,79.3
2022-07-27T04:43:17.612Z,79.2
2022-07-27T04:44:17.091Z,79.2
2022-07-27T04:45:16.534Z,79.0
2022-07-27T04:46:17.132Z,79.0
2022-07-27T04:47:16.638Z,79.0
2022-07-27T04:48:17.061Z,78.9
2022-07-27T04:49:17.447Z,78.9
2022-07-27T04:50:17.130Z,78.8
2022-07-27T04:51:16.546Z,78.9
2022-07-27T04:52:16.439Z,78.9
2022-07-27T04:53:16.895Z,78.9
2022-07-27T04:54:17.304Z,78.7
2022-07-27T04:55:16.759Z,78.5
2022-07-27T04:56:18.963Z,78.6
2022-07-27T04:57:17.445Z,78.7
2022-07-27T04:58:16.902Z,78.2
2022-07-27T04:59:17.378Z,78.1
2022-07-27T05:00:16.905Z,78.2
2022-07-27T05:01:17.520Z,78.3
2022-07-27T05:02:17.216Z,78.3
2022-07-27T05:03:18.690Z,78.3
2022-07-27T05:04:17.571Z,78.2
2022-07-27T05:05:17.112Z,78.0
2022-07-27T05:06:16.536Z,77.9
2022-07-27T05:07:16.948Z,78.1
2022-07-27T05:08:17.389Z,78.1
2022-07-27T05:09:22.760Z,78.0
2022-07-27T05:10:20.874Z,77.8
2022-07-27T05:11:17.380Z,77.6
2022-07-27T05:12:16.525Z,77.7
2022-07-27T05:13:17.026Z,77.1
2022-07-27T05:14:21.190Z,76.9
2022-07-27T05:15:16.975Z,76.7
2022-07-27T05:16:17.551Z,76.9
2022-07-27T05:17:17.023Z,76.6
2022-07-27T05:18:16.467Z,76.4
2022-07-27T05:19:16.920Z,76.0
2022-07-27T05:20:17.385Z,75.8
2022-07-27T05:21:16.825Z,75.9
2022-07-27T05:22:17.285Z,75.9
2022-07-27T05:23:16.757Z,75.6
2022-07-27T05:24:18.206Z,75.4
2022-07-27T05:25:17.093Z,75.4
2022-07-27T05:26:16.585Z,75.0
2022-07-27T05:27:17.060Z,74.5
2022-07-27T05:28:16.509Z,74.5
2022-07-27T05:29:16.961Z,74.5
2022-07-27T05:30:17.460Z,74.2
2022-07-27T05:31:17.126Z,74.0
2022-07-27T05:32:17.542Z,73.9
2022-07-27T05:33:16.987Z,73.8
2022-07-27T05:34:16.447Z,73.9
2022-07-27T05:35:16.861Z,73.4
2022-07-27T05:36:17.313Z,73.1
2022-07-27T05:37:16.736Z,72.9
2022-07-27T05:38:17.185Z,72.6
2022-07-27T05:39:17.119Z,73.2
2022-07-27T05:40:16.763Z,72.7
2022-07-27T05:41:17.233Z,72.9
2022-07-27T05:42:16.624Z,64.7
2022-07-27T05:43:17.063Z,64.5
2022-07-27T05:44:16.529Z,64.7
2022-07-27T05:45:17.023Z,86.2
2022-07-27T05:46:16.618Z,86.0
2022-07-27T05:47:17.107Z,85.9
2022-07-27T05:48:16.547Z,71.7
2022-07-27T05:49:17.784Z,71.2
2022-07-27T05:50:17.341Z,70.8
2022-07-27T05:51:16.752Z,71.3
2022-07-27T05:52:16.873Z,71.1
2022-07-27T05:53:17.347Z,70.8
2022-07-27T05:54:16.818Z,70.6
2022-07-27T05:55:17.318Z,70.8
2022-07-27T05:56:16.805Z,70.4
2022-07-27T05:57:17.259Z,70.4
2022-07-27T05:58:24.279Z,70.8
2022-07-27T05:59:17.360Z,70.6
2022-07-27T06:00:16.802Z,71.1
2022-07-27T06:01:17.400Z,70.8
2022-07-27T06:02:17.124Z,70.8
2022-07-27T06:03:16.808Z,70.4
2022-07-27T06:04:17.263Z,70.0
2022-07-27T06:05:17.929Z,69.9
2022-07-27T06:06:17.423Z,70.4
2022-07-27T06:07:16.883Z,70.6
2022-07-27T06:08:17.374Z,70.5
2022-07-27T06:09:16.849Z,70.3
2022-07-27T06:10:17.342Z,70.2
2022-07-27T06:11:16.813Z,70.4
2022-07-27T06:12:17.237Z,70.7
2022-07-27T06:13:16.680Z,70.7
2022-07-27T06:14:17.128Z,70.6
2022-07-27T06:15:16.578Z,70.5
2022-07-27T06:16:17.158Z,69.9
2022-07-27T06:17:16.636Z,69.0
2022-07-27T06:18:17.083Z,67.9
2022-07-27T06:19:16.516Z,67.8
2022-07-27T06:20:17.022Z,67.6
2022-07-27T06:21:16.549Z,67.6
2022-07-27T06:22:16.923Z,67.6
2022-07-27T06:23:17.406Z,67.2
2022-07-27T06:24:16.890Z,68.1
2022-07-27T06:25:17.359Z,68.1
2022-07-27T06:26:16.814Z,68.6
2022-07-27T06:27:17.273Z,68.8
2022-07-27T06:28:16.721Z,68.6
2022-07-27T06:29:17.169Z,68.8
2022-07-27T06:30:16.595Z,69.9
2022-07-27T06:31:17.843Z,70.3
2022-07-27T06:32:19.235Z,69.8
2022-07-27T06:33:17.565Z,69.3
2022-07-27T06:34:17.384Z,69.4
2022-07-27T06:35:18.514Z,68.8
2022-07-27T06:36:17.354Z,68.8
2022-07-27T06:37:18.829Z,68.3
2022-07-27T06:38:16.693Z,68.0
2022-07-27T06:39:17.153Z,68.2
2022-07-27T06:40:16.612Z,68.5
2022-07-27T06:41:17.121Z,68.0
2022-07-27T06:42:16.489Z,68.0
2022-07-27T06:43:16.959Z,69.0
2022-07-27T06:44:17.394Z,69.7
2022-07-27T06:45:16.883Z,69.2
2022-07-27T06:46:17.465Z,69.1
2022-07-27T06:47:16.930Z,68.4
2022-07-27T06:48:17.377Z,68.3
2022-07-27T06:49:18.008Z,68.2
2022-07-27T06:50:16.726Z,68.1
2022-07-27T06:51:17.896Z,67.8
2022-07-27T06:52:16.993Z,67.5
2022-07-27T06:53:21.511Z,67.7
2022-07-27T06:54:17.184Z,67.6
2022-07-27T06:55:16.699Z,67.9
2022-07-27T06:56:17.157Z,67.3
2022-07-27T06:57:16.594Z,66.9
2022-07-27T06:58:17.021Z,67.2
2022-07-27T06:59:16.464Z,66.9
2022-07-27T07:00:16.892Z,67.0
2022-07-27T07:01:17.455Z,67.4
2022-07-27T07:02:16.741Z,68.0
2022-07-27T07:03:17.268Z,68.2
2022-07-27T07:04:16.884Z,67.9
2022-07-27T07:05:16.683Z,68.3
2022-07-27T07:06:17.121Z,68.2
2022-07-27T07:07:16.585Z,67.8
2022-07-27T07:08:17.050Z,67.1
2022-07-27T07:09:16.494Z,67.2
2022-07-27T07:10:16.969Z,66.8
2022-07-27T07:11:17.461Z,67.3
2022-07-27T07:12:17.318Z,67.4
2022-07-27T07:13:16.753Z,68.1
2022-07-27T07:14:17.177Z,68.5
2022-07-27T07:15:16.646Z,68.8
2022-07-27T07:16:17.247Z,69.3
2022-07-27T07:17:16.766Z,69.5
2022-07-27T07:18:17.314Z,70.1
2022-07-27T07:19:16.773Z,70.0
2022-07-27T07:20:17.269Z,69.1
2022-07-27T07:21:16.732Z,67.4
2022-07-27T07:22:17.024Z,66.3
2022-07-27T07:23:16.491Z,64.1
2022-07-27T07:24:16.961Z,64.2
2022-07-27T07:25:17.428Z,64.3
2022-07-27T07:26:16.863Z,63.8
2022-07-27T07:27:17.290Z,64.0
2022-07-27T07:28:16.757Z,63.8
2022-07-27T07:29:17.219Z,63.7
2022-07-27T07:30:16.692Z,62.9
2022-07-27T07:31:17.419Z,61.9
2022-07-27T07:32:16.455Z,62.3
2022-07-27T07:33:16.882Z,61.8
2022-07-27T07:34:17.298Z,61.0
2022-07-27T07:35:16.754Z,60.8
2022-07-27T07:36:17.210Z,60.8
2022-07-27T07:37:16.713Z,60.0
2022-07-27T07:38:17.169Z,60.3
2022-07-27T07:39:17.014Z,60.2
2022-07-27T07:40:43.032Z,60.5
2022-07-27T07:41:17.028Z,60.3
2022-07-27T07:42:16.642Z,60.2
2022-07-27T07:43:17.066Z,60.4
2022-07-27T07:44:16.534Z,59.8
2022-07-27T07:45:16.977Z,59.4
2022-07-27T07:46:16.517Z,57.9
2022-07-27T07:47:17.019Z,58.2
2022-07-27T07:48:16.477Z,58.2
2022-07-27T07:49:18.024Z,58.4
2022-07-27T07:50:16.833Z,59.4
2022-07-27T07:51:17.297Z,61.5
2022-07-27T07:52:16.467Z,61.0
2022-07-27T07:53:16.949Z,60.0
2022-07-27T07:54:17.424Z,59.1
2022-07-27T07:55:16.916Z,58.0
2022-07-27T07:56:17.380Z,57.1
2022-07-27T07:57:16.880Z,57.3
2022-07-27T07:58:17.335Z,57.5
2022-07-27T07:59:16.769Z,58.1
2022-07-27T08:00:17.196Z,60.4
2022-07-27T08:01:17.495Z,60.2
2022-07-27T08:02:17.207Z,59.1
2022-07-27T08:03:16.862Z,58.7
2022-07-27T08:04:17.330Z,58.6
2022-07-27T08:05:16.841Z,56.6
2022-07-27T08:06:17.286Z,56.8
2022-07-27T08:07:16.766Z,58.0
2022-07-27T08:08:17.356Z,57.1
2022-07-27T08:09:16.847Z,56.2
2022-07-27T08:10:18.356Z,57.0
2022-07-27T08:11:16.821Z,56.7
2022-07-27T08:12:17.210Z,57.7
2022-07-27T08:13:22.670Z,58.3
2022-07-27T08:14:17.204Z,57.2
2022-07-27T08:15:16.670Z,57.4
2022-07-27T08:16:17.291Z,54.9
2022-07-27T08:17:16.790Z,53.3
2022-07-27T08:18:17.254Z,52.4
2022-07-27T08:19:16.695Z,52.5
2022-07-27T08:20:17.952Z,53.1
2022-07-27T08:21:16.468Z,52.6
2022-07-27T08:22:17.030Z,51.4
2022-07-27T08:23:16.495Z,53.3
2022-07-27T08:24:16.949Z,52.6
2022-07-27T08:25:17.456Z,50.8
2022-07-27T08:26:16.922Z,50.9
2022-07-27T08:27:17.389Z,50.4
2022-07-27T08:28:17.941Z,49.7
2022-07-27T08:29:23.423Z,49.2
2022-07-27T08:30:17.962Z,49.9
2022-07-27T08:31:26.468Z,49.5
2022-07-27T08:32:16.840Z,48.5
2022-07-27T08:33:17.300Z,47.8
2022-07-27T08:34:16.787Z,47.7
2022-07-27T08:35:17.265Z,49.0
2022-07-27T08:36:16.735Z,48.6
2022-07-27T08:37:17.220Z,48.4
2022-07-27T08:38:16.714Z,46.6
2022-07-27T08:40:28.135Z,45.1
2022-07-27T08:40:39.423Z,44.8
2022-07-27T08:41:16.611Z,45.1
2022-07-27T08:42:16.466Z,46.2
2022-07-27T08:43:25.410Z,47.9
2022-07-27T08:44:17.005Z,49.2
2022-07-27T08:45:17.319Z,50.8
2022-07-27T08:46:16.874Z,50.9
2022-07-27T08:47:17.526Z,52.5
2022-07-27T08:48:16.989Z,53.3
2022-07-27T08:49:17.707Z,53.4
2022-07-27T08:50:16.481Z,54.3
2022-07-27T08:51:16.936Z,55.3
2022-07-27T08:52:16.939Z,54.1
2022-07-27T08:53:17.435Z,53.1
2022-07-27T08:54:16.923Z,51.9
2022-07-27T08:55:17.417Z,50.4
2022-07-27T08:56:16.857Z,51.5
2022-07-27T08:57:17.290Z,51.4
2022-07-27T08:58:16.701Z,51.2
2022-07-27T08:59:17.137Z,50.9
2022-07-27T09:00:16.591Z,51.3
2022-07-27T09:01:17.090Z,51.6
2022-07-27T09:02:17.522Z,50.9
2022-07-27T09:03:21.262Z,50.4
2022-07-27T09:04:17.001Z,49.5
2022-07-27T09:05:17.167Z,48.1
2022-07-27T09:06:16.634Z,48.3
2022-07-27T09:07:17.126Z,48.6
2022-07-27T09:08:16.588Z,47.9
2022-07-27T09:09:17.272Z,48.0
2022-07-27T09:10:16.839Z,49.5
2022-07-27T09:11:17.305Z,51.3
2022-07-27T09:12:17.137Z,50.0
2022-07-27T09:13:16.561Z,49.4
2022-07-27T09:14:16.983Z,51.7
2022-07-27T09:15:16.432Z,50.5
2022-07-27T09:16:20.561Z,49.4
2022-07-27T09:17:47.774Z,48.6
2022-07-27T09:18:16.671Z,51.7
2022-07-27T09:19:17.186Z,52.4
2022-07-27T09:20:19.400Z,52.4
2022-07-27T09:21:17.047Z,52.6
2022-07-27T09:22:16.495Z,52.8
2022-07-27T09:23:16.964Z,53.2
2022-07-27T09:24:45.348Z,55.5
2022-07-27T09:25:16.756Z,55.6
2022-07-27T09:26:32.823Z,54.0
2022-07-27T09:27:17.164Z,54.2
2022-07-27T09:28:16.608Z,54.3
2022-07-27T09:29:17.687Z,53.4
2022-07-27T09:30:17.228Z,53.3
2022-07-27T09:31:16.899Z,53.5
2022-07-27T09:32:17.814Z,54.9
2022-07-27T09:33:17.390Z,55.1
2022-07-27T09:34:16.885Z,57.7
2022-07-27T09:35:17.362Z,57.2
2022-07-27T09:36:16.817Z,56.8
2022-07-27T09:37:17.268Z,56.6
2022-07-27T09:38:16.723Z,56.4
2022-07-27T09:39:17.648Z,56.5
2022-07-27T09:40:25.747Z,57.3
2022-07-27T09:41:18.609Z,56.8
2022-07-27T09:43:03.757Z,56.5
2022-07-27T09:44:32.102Z,55.4
2022-07-27T09:45:17.542Z,55.7
2022-07-27T09:46:17.083Z,57.3
2022-07-27T09:47:16.608Z,58.8
2022-07-27T09:48:17.072Z,58.5
2022-07-27T09:49:16.660Z,58.5
2022-07-27T09:50:17.340Z,59.1
2022-07-27T09:51:59.190Z,58.6
2022-07-27T09:52:17.256Z,59.1
2022-07-27T09:53:42.139Z,59.8
2022-07-27T09:54:17.155Z,59.3
2022-07-27T09:55:16.578Z,59.0
2022-07-27T09:56:17.027Z,59.6
2022-07-27T09:57:16.448Z,59.2
2022-07-27T09:58:16.906Z,59.7
2022-07-27T09:59:17.325Z,59.7
2022-07-27T10:00:16.817Z,59.7
2022-07-27T10:01:17.418Z,60.5
2022-07-27T10:02:17.189Z,59.7
2022-07-27T10:03:16.718Z,57.9
2022-07-27T10:04:17.969Z,58.0
2022-07-27T10:05:16.809Z,58.5
2022-07-27T10:06:17.825Z,57.6
2022-07-27T10:07:17.297Z,57.3
2022-07-27T10:08:16.764Z,57.5
2022-07-27T10:09:17.210Z,57.5
2022-07-27T10:10:16.708Z,59.0
2022-07-27T10:11:17.151Z,59.8
2022-07-27T10:12:18.290Z,60.3
2022-07-27T10:13:16.682Z,60.4
2022-07-27T10:14:17.101Z,60.9
2022-07-27T10:15:16.688Z,61.3
2022-07-27T10:16:17.379Z,60.4
2022-07-27T10:17:16.935Z,61.2
2022-07-27T10:18:17.400Z,60.4
2022-07-27T10:19:16.869Z,58.0
2022-07-27T10:20:17.470Z,55.8
2022-07-27T10:21:16.922Z,56.3
2022-07-27T10:22:16.779Z,56.9
2022-07-27T10:23:17.246Z,57.0
2022-07-27T10:24:17.797Z,56.1
2022-07-27T10:25:16.806Z,55.6
2022-07-27T10:26:17.226Z,54.3
2022-07-27T10:27:16.661Z,54.1
2022-07-27T10:28:17.094Z,54.0
2022-07-27T10:29:16.521Z,54.0
2022-07-27T10:30:27.602Z,53.5
2022-07-27T10:31:17.675Z,51.8
2022-07-27T10:32:17.001Z,50.6
2022-07-27T10:33:16.458Z,50.9
2022-07-27T10:34:16.919Z,51.4
2022-07-27T10:35:17.412Z,52.3
2022-07-27T10:36:17.293Z,52.2
2022-07-27T10:37:16.752Z,53.4
2022-07-27T10:38:17.213Z,56.0
2022-07-27T10:39:16.634Z,56.5
2022-07-27T10:40:17.156Z,55.4
2022-07-27T10:41:16.656Z,55.1
2022-07-27T10:42:17.230Z,53.5
2022-07-27T10:43:16.677Z,55.1
2022-07-27T10:44:18.046Z,55.0
2022-07-27T10:45:16.514Z,54.7
2022-07-27T10:46:17.139Z,55.1
2022-07-27T10:47:16.612Z,57.0
2022-07-27T10:48:18.038Z,56.6
2022-07-27T10:49:17.162Z,56.3
2022-07-27T10:50:16.660Z,54.8
2022-07-27T10:51:17.788Z,55.2
2022-07-27T10:52:16.721Z,56.9
2022-07-27T10:53:17.136Z,58.6
2022-07-27T10:54:16.576Z,56.9
2022-07-27T10:55:17.043Z,56.2
2022-07-27T10:56:16.461Z,55.8
2022-07-27T10:57:16.931Z,53.7
2022-07-27T10:58:17.372Z,52.8
2022-07-27T10:59:16.811Z,52.3
2022-07-27T11:00:20.230Z,52.4
2022-07-27T11:01:16.879Z,51.5
2022-07-27T11:02:17.098Z,50.1
2022-07-27T11:03:16.560Z,50.4
2022-07-27T11:04:17.860Z,50.8
2022-07-27T11:05:59.407Z,49.8
2022-07-27T11:06:34.953Z,49.0
2022-07-27T11:07:36.869Z,48.7
2022-07-27T11:08:36.941Z,49.0
2022-07-27T11:10:17.212Z,50.0
2022-07-27T11:11:16.648Z,50.5
2022-07-27T11:12:17.291Z,50.4
2022-07-27T11:13:16.719Z,50.3
2022-07-27T11:14:19.553Z,49.1
2022-07-27T11:15:16.622Z,49.1
2022-07-27T11:16:26.050Z,49.1
2022-07-27T11:17:58.317Z,48.5
2022-07-27T11:18:17.152Z,49.6
2022-07-27T11:19:17.662Z,50.7
2022-07-27T11:20:17.339Z,49.3
2022-07-27T11:21:26.069Z,49.4
2022-07-27T11:22:29.380Z,50.6
2022-07-27T11:23:51.157Z,49.6
2022-07-27T11:24:17.312Z,50.5
2022-07-27T11:25:16.892Z,50.3
2022-07-27T11:26:17.319Z,48.6
2022-07-27T11:27:23.548Z,48.8
2022-07-27T11:28:16.675Z,48.4
2022-07-27T11:29:17.118Z,48.4
2022-07-27T11:30:16.574Z,47.2
2022-07-27T11:31:53.247Z,46.3
2022-07-27T11:32:16.533Z,47.9
2022-07-27T11:33:16.994Z,48.5
2022-07-27T11:34:16.872Z,50.0
2022-07-27T11:35:20.591Z,49.0
2022-07-27T11:36:17.079Z,49.8
2022-07-27T11:37:16.503Z,49.4
2022-07-27T11:38:16.962Z,49.9
2022-07-27T11:39:54.622Z,52.2
2022-07-27T11:40:54.180Z,53.3
2022-07-27T11:41:47.846Z,53.6
2022-07-27T11:42:23.367Z,53.4
2022-07-27T11:43:17.673Z,52.6
2022-07-27T11:44:17.321Z,52.0
2022-07-27T11:45:16.777Z,51.4
2022-07-27T11:46:17.484Z,50.7
2022-07-27T11:47:17.051Z,50.7
2022-07-27T11:48:16.516Z,50.3
2022-07-27T11:49:17.080Z,50.9
2022-07-27T11:50:16.558Z,50.9
2022-07-27T11:51:17.017Z,49.6
2022-07-27T11:52:16.427Z,50.4
2022-07-27T11:53:16.854Z,51.6
2022-07-27T11:54:17.273Z,51.8
2022-07-27T11:55:16.719Z,51.6
2022-07-27T11:56:17.137Z,53.0
2022-07-27T11:57:16.596Z,53.5
2022-07-27T11:58:17.025Z,53.5
2022-07-27T11:59:17.189Z,53.5
2022-07-27T12:00:16.843Z,53.7
2022-07-27T12:01:17.337Z,53.5
2022-07-27T12:02:16.837Z,53.2
2022-07-27T12:03:17.340Z,53.0
2022-07-27T12:04:16.841Z,52.7
2022-07-27T12:05:17.474Z,54.3
2022-07-27T12:06:16.946Z,54.0
2022-07-27T12:07:17.397Z,53.2
2022-07-27T12:08:16.834Z,53.3
2022-07-27T12:09:17.290Z,53.2
2022-07-27T12:10:16.747Z,54.3
2022-07-27T12:11:17.181Z,54.1
2022-07-27T12:12:16.862Z,54.1
2022-07-27T12:13:17.346Z,54.0
2022-07-27T12:14:17.528Z,53.3
2022-07-27T12:15:45.035Z,53.3
2022-07-27T12:16:18.724Z,53.5
2022-07-27T12:17:17.391Z,54.1
2022-07-27T12:18:16.877Z,54.6
2022-07-27T12:19:17.329Z,54.7
2022-07-27T12:20:16.790Z,54.6
2022-07-27T12:21:17.241Z,54.7
2022-07-27T12:22:16.592Z,54.3
2022-07-27T12:23:17.028Z,54.4
2022-07-27T12:24:16.528Z,54.4
2022-07-27T12:25:17.646Z,54.3
2022-07-27T12:26:17.133Z,54.9
2022-07-27T12:27:16.587Z,54.5
2022-07-27T12:28:17.046Z,55.0
2022-07-27T12:29:17.144Z,54.7
2022-07-27T12:30:16.800Z,54.6
2022-07-27T12:31:17.461Z,54.2
2022-07-27T12:32:16.793Z,55.0
2022-07-27T12:33:17.283Z,56.1
2022-07-27T12:34:16.745Z,56.3
2022-07-27T12:35:17.231Z,56.6
2022-07-27T12:36:16.659Z,55.8
2022-07-27T12:37:17.081Z,55.3
2022-07-27T12:38:16.519Z,55.0
2022-07-27T12:39:16.939Z,55.2
2022-07-27T12:40:17.405Z,55.5
2022-07-27T12:41:16.827Z,55.9
2022-07-27T12:42:16.785Z,55.2
2022-07-27T12:43:17.228Z,55.4
2022-07-27T12:44:16.700Z,55.1
2022-07-27T12:45:17.162Z,55.6
2022-07-27T12:46:16.739Z,55.3
2022-07-27T12:47:17.248Z,55.1
2022-07-27T12:48:16.756Z,55.1
2022-07-27T12:49:17.933Z,55.4
2022-07-27T12:50:16.823Z,55.4
2022-07-27T12:51:17.252Z,55.7
2022-07-27T12:52:16.839Z,55.7
2022-07-27T12:53:17.313Z,56.0
2022-07-27T12:54:16.738Z,56.2
2022-07-27T12:55:17.160Z,56.2
2022-07-27T12:56:27.872Z,56.1
2022-07-27T12:57:53.795Z,56.5
2022-07-27T12:58:16.868Z,56.1
2022-07-27T12:59:17.348Z,55.9
2022-07-27T13:00:16.798Z,55.6
2022-07-27T13:01:17.363Z,55.5
2022-07-27T13:02:17.398Z,55.4
2022-07-27T13:03:16.934Z,55.4
2022-07-27T13:04:17.411Z,55.0
2022-07-27T13:05:16.875Z,55.2
2022-07-27T13:06:17.312Z,55.4
2022-07-27T13:07:16.735Z,55.9
2022-07-27T13:08:17.457Z,55.7
2022-07-27T13:09:17.128Z,56.1
2022-07-27T13:10:16.559Z,55.5
2022-07-27T13:11:16.988Z,55.3
2022-07-27T13:12:16.744Z,55.1
2022-07-27T13:13:17.218Z,55.4
2022-07-27T13:14:16.717Z,55.8
2022-07-27T13:15:17.232Z,55.9
2022-07-27T13:16:16.861Z,55.7
2022-07-27T13:17:17.340Z,55.1
2022-07-27T13:18:23.680Z,54.6
2022-07-27T13:19:17.413Z,54.3
2022-07-27T13:20:16.912Z,53.0